Aeroporto :
LOGIN :

Iscrizione | Disclaimer

   EN    FR    IT 

 










Sommario :    VFR   VFR Marginale   IFR   IFR Intensivo   IFR Molto Intensivo
Visibilità : 
Base nubi : 
>= 8 km
>= 3000ft
5 / 8 km
1000 / 3000 ft
1500m / 5 km
500 / 1000 ft
800 / 1500m
200 / 500 ft
< 800m
< 200 ft
Simboli :   Temporali  Nebbia  Neve Forte  Precipitazioni Forti  Vento > 20 kt
SIGMETs :   Varie  Temporali  Ghiacco  Turbolenza  Onda orograficha  Ceneri Vulcaniche






- Altitudine del aeroporto : 124 ft
- Codice IATA : RNS


LFRN - Rennes

ULTIMO METAR :
  • 280500Z AUTO 21009KT 9999 OVC006 14/13 Q1018 TEMPO 3000 RADZ

METARs OBSOLETI :
  • 280430Z AUTO 21009KT 8000 OVC007 14/13 Q1018 TEMPO 3000 RADZ
  • 280400Z AUTO 21009KT 9999 OVC008 14/13 Q1018 TEMPO 3000 RADZ
  • 280330Z AUTO 21009KT 9999 OVC007 14/13 Q1018 TEMPO 3000 RADZ
  • 280300Z AUTO 20009KT 9999 OVC006 13/13 Q1018 TEMPO 3000 RADZ
  • 280230Z AUTO 20009KT 9000 -RADZ OVC006 13/13 Q1018 TEMPO 3000 RADZ
  • 280200Z AUTO 19009KT 7000 -RA BKN007 OVC011 13/12 Q1019 TEMPO 3000 RADZ
  • 280130Z AUTO 19009KT 160V220 9000 -RADZ OVC007 13/12 Q1019 TEMPO 3000 RADZ
  • 280100Z AUTO 19009KT 9999 -RA OVC010 13/12 Q1019 TEMPO 3000 RADZ
  • 280030Z AUTO 20010KT 9999 OVC013 13/11 Q1019 TEMPO 3000 RADZ BKN006

TAF TAF LFRN
Valido dal 28 a 00 ore il 29 a 00 ore UTC


272300Z 2800/2824 22010KT 9999 BKN040
BECMG 2800/2802 BKN012
TEMPO 2800/2807 3000 RADZ BKN006
BECMG 2807/2810 BKN020
PROB40
TEMPO 2813/2818 23015G25KT
PROB40
TEMPO 2822/2824 4000 RADZ BKN010
ATIS : +33 2 99 67 72 50



MetMap, La meteo Aeronautica in un colpo d'occhio ! - Copyright ORBIFLY Dicembre 2007 - Disclaimer

ORBIFLY MET'MAP TEAM :

Programmazione e sviluppo : Alexandra Zaïnal
Concezione : Baudouin d'Aumeries
Supporto tecnico e logistico : Manuel Goepfert
Aiuto : Marc-Olivier Méhu
Aiuto per la traduzione : Arnaldo La Scala




FONTI E CREDITI :

   NOAA